Time;durP1;ratioP1;P1;durP2;ratioP2;P2;SDS_P1;SDS_P2;PMS_P1;PMS_P2;Temp;Humidity;BMP_temperature;BMP_pressure;BME280_temperature;BME280_humidity;BME280_pressure;Samples;Min_cycle;Max_cycle;Signal;HPM_P1;HPM_P2
2024/01/24 00:01:23;;;;;;;41.47;29.53;;;22.60;99.90;;;;;;5046165;28;20026;-64
2024/01/24 00:03:49;;;;;;;43.37;31.00;;;22.70;99.90;;;;;;5051760;28;20028;-63
2024/01/24 00:06:14;;;;;;;39.37;30.03;;;22.70;99.90;;;;;;5039095;28;20025;-64
2024/01/24 00:08:40;;;;;;;40.80;29.70;;;22.60;99.90;;;;;;5049592;28;20478;-64
2024/01/24 00:11:06;;;;;;;38.93;29.63;;;22.60;99.90;;;;;;5036646;28;20467;-64
2024/01/24 00:13:32;;;;;;;39.93;31.37;;;22.70;99.90;;;;;;5032240;28;20021;-64
2024/01/24 00:15:57;;;;;;;39.50;30.77;;;22.70;99.90;;;;;;5036432;28;20078;-64
2024/01/24 00:18:23;;;;;;;42.17;31.37;;;22.70;99.90;;;;;;5044517;28;20033;-64
2024/01/24 00:20:49;;;;;;;42.80;31.87;;;22.70;99.90;;;;;;5047545;28;20063;-64
2024/01/24 00:23:14;;;;;;;40.33;30.33;;;22.70;99.90;;;;;;5049402;28;20029;-64
2024/01/24 00:25:40;;;;;;;43.10;31.87;;;22.70;99.90;;;;;;5049273;28;20124;-64
2024/01/24 00:28:21;;;;;;;37.17;29.80;;;22.60;99.90;;;;;;5044088;28;20032;-64
2024/01/24 00:30:47;;;;;;;40.47;29.97;;;22.70;99.90;;;;;;5043878;28;20039;-64
2024/01/24 00:33:15;;;;;;;37.10;28.90;;;22.70;99.90;;;;;;5045124;28;20020;-64
2024/01/24 00:35:41;;;;;;;38.10;30.10;;;22.70;99.90;;;;;;5043948;28;20043;-63
2024/01/24 00:38:06;;;;;;;37.10;29.13;;;22.60;99.90;;;;;;5042924;28;20550;-62
2024/01/24 00:41:00;;;;;;;40.83;30.17;;;22.70;99.90;;;;;;5036055;28;20459;-62
2024/01/24 00:43:26;;;;;;;39.23;29.83;;;22.70;99.90;;;;;;5049543;28;20025;-63
2024/01/24 00:45:54;;;;;;;37.90;29.97;;;22.60;99.90;;;;;;5047150;28;20028;-63
2024/01/24 00:48:20;;;;;;;41.57;30.43;;;22.70;99.90;;;;;;5051497;28;20032;-63
2024/01/24 00:50:45;;;;;;;42.53;32.67;;;22.70;99.90;;;;;;5049786;28;20550;-63
2024/01/24 00:53:19;;;;;;;40.60;30.53;;;22.60;99.90;;;;;;5051357;28;20033;-63
2024/01/24 00:55:45;;;;;;;37.87;29.60;;;22.60;99.90;;;;;;5037712;28;20036;-63
2024/01/24 00:58:11;;;;;;;42.10;31.13;;;22.60;99.90;;;;;;5024769;28;20410;-63
2024/01/24 01:00:37;;;;;;;42.13;30.87;;;22.60;99.90;;;;;;5051073;28;20025;-63
2024/01/24 01:03:03;;;;;;;41.63;30.67;;;22.60;99.90;;;;;;5051554;28;20025;-63
2024/01/24 01:05:28;;;;;;;39.37;30.97;;;22.60;99.90;;;;;;5050726;28;20053;-63
2024/01/24 01:07:54;;;;;;;40.33;31.83;;;22.60;99.90;;;;;;5049459;28;20041;-63
2024/01/24 01:10:20;;;;;;;42.33;31.13;;;22.60;99.90;;;;;;5049155;28;20115;-63
2024/01/24 01:12:46;;;;;;;42.87;32.27;;;22.60;99.90;;;;;;5055466;28;20107;-63
2024/01/24 01:15:12;;;;;;;40.60;30.83;;;22.60;99.90;;;;;;5043544;28;20509;-63
2024/01/24 01:17:37;;;;;;;36.33;29.60;;;22.60;99.90;;;;;;5041782;28;20028;-63
2024/01/24 01:20:05;;;;;;;39.80;30.40;;;22.60;99.90;;;;;;5042665;28;20361;-63
2024/01/24 01:22:30;;;;;;;43.20;31.67;;;22.60;99.90;;;;;;5055090;28;20025;-62
2024/01/24 01:24:56;;;;;;;39.17;31.60;;;22.60;99.90;;;;;;5053403;28;20115;-63
2024/01/24 01:27:22;;;;;;;36.20;30.03;;;22.60;99.90;;;;;;5054852;28;20476;-63
2024/01/24 01:29:48;;;;;;;43.57;30.30;;;22.60;99.90;;;;;;5050786;28;20051;-63
2024/01/24 01:32:14;;;;;;;41.67;31.10;;;22.60;99.90;;;;;;5050232;28;20029;-63
2024/01/24 01:34:40;;;;;;;43.27;32.00;;;22.60;99.90;;;;;;5051266;28;20036;-63
2024/01/24 01:37:06;;;;;;;37.57;30.93;;;22.60;99.90;;;;;;5049112;28;20131;-63
2024/01/24 01:39:32;;;;;;;44.43;31.90;;;22.50;99.90;;;;;;5054552;28;20032;-63
2024/01/24 01:41:58;;;;;;;40.63;31.10;;;22.50;99.90;;;;;;5052081;28;20391;-62
2024/01/24 01:44:23;;;;;;;40.47;30.13;;;22.50;99.90;;;;;;5044379;28;20033;-63
2024/01/24 01:46:51;;;;;;;38.23;31.07;;;22.60;99.90;;;;;;5049328;28;20063;-63
2024/01/24 01:49:17;;;;;;;43.23;31.03;;;22.50;99.90;;;;;;5045051;28;20041;-62
2024/01/24 01:51:44;;;;;;;43.17;32.60;;;22.50;99.90;;;;;;5053604;28;20049;-62
2024/01/24 01:54:11;;;;;;;38.93;30.77;;;22.60;99.90;;;;;;5046255;28;20014;-62
2024/01/24 01:56:37;;;;;;;41.93;31.33;;;22.60;99.90;;;;;;5045163;28;20033;-62
2024/01/24 01:59:02;;;;;;;40.40;32.13;;;22.50;99.90;;;;;;5048351;28;20017;-63
2024/01/24 02:01:28;;;;;;;39.57;30.57;;;22.50;99.90;;;;;;5043945;28;20034;-63
2024/01/24 02:03:54;;;;;;;42.07;32.53;;;22.60;99.90;;;;;;5039945;28;20029;-63
2024/01/24 02:06:35;;;;;;;41.30;30.40;;;22.50;99.90;;;;;;5040097;28;20052;-62
2024/01/24 02:09:01;;;;;;;41.63;32.63;;;22.60;99.90;;;;;;5048779;28;20055;-62
2024/01/24 02:11:26;;;;;;;43.33;34.47;;;22.60;99.90;;;;;;5042423;28;20029;-62
2024/01/24 02:14:01;;;;;;;48.20;36.00;;;22.50;99.90;;;;;;5052668;28;20051;-62
2024/01/24 02:16:27;;;;;;;49.90;37.63;;;22.50;99.90;;;;;;5045013;28;20021;-62
2024/01/24 02:18:58;;;;;;;49.20;36.33;;;22.50;99.90;;;;;;5044722;28;20384;-62
2024/01/24 02:21:24;;;;;;;55.50;38.97;;;22.50;99.90;;;;;;5038683;28;20074;-62
2024/01/24 02:23:50;;;;;;;49.13;38.63;;;22.40;99.90;;;;;;5033622;28;20030;-62
2024/01/24 02:26:16;;;;;;;50.83;37.87;;;22.40;99.90;;;;;;5053790;28;20079;-62
2024/01/24 02:28:42;;;;;;;48.90;38.83;;;22.40;99.90;;;;;;5039455;28;20384;-62
2024/01/24 02:31:08;;;;;;;51.90;39.87;;;22.50;99.90;;;;;;5048921;28;20128;-62
2024/01/24 02:33:33;;;;;;;57.10;39.17;;;22.50;99.90;;;;;;5050770;28;20029;-63
2024/01/24 02:35:59;;;;;;;55.90;38.07;;;22.40;99.90;;;;;;5052172;28;20040;-62
2024/01/24 02:38:24;;;;;;;52.70;39.90;;;22.40;99.90;;;;;;5050766;28;20048;-62
2024/01/24 02:40:50;;;;;;;49.03;39.03;;;22.40;99.90;;;;;;5048778;28;20359;-62
2024/01/24 02:43:15;;;;;;;49.43;38.83;;;22.40;99.90;;;;;;5051280;28;20115;-62
2024/01/24 02:45:41;;;;;;;53.47;40.00;;;22.40;99.90;;;;;;5052822;28;20018;-62
2024/01/24 02:48:07;;;;;;;55.10;39.27;;;22.30;99.90;;;;;;5042106;28;20147;-62
2024/01/24 02:50:33;;;;;;;48.17;38.40;;;22.40;99.90;;;;;;5044953;28;20045;-63
2024/01/24 02:53:00;;;;;;;52.77;38.40;;;22.30;99.90;;;;;;5049756;28;20071;-62
2024/01/24 02:55:26;;;;;;;51.70;39.17;;;22.30;99.90;;;;;;5052816;28;20420;-62
2024/01/24 02:57:51;;;;;;;50.27;39.40;;;22.30;99.90;;;;;;5049929;28;20033;-62
2024/01/24 03:00:17;;;;;;;50.63;37.43;;;22.30;99.90;;;;;;5047603;28;20060;-62
2024/01/24 03:02:43;;;;;;;51.60;38.67;;;22.40;99.90;;;;;;5051747;28;20391;-62
2024/01/24 03:05:11;;;;;;;51.43;37.73;;;22.30;99.90;;;;;;5042028;28;20399;-62
2024/01/24 03:07:49;;;;;;;54.10;38.93;;;22.30;99.90;;;;;;5050614;28;20100;-62
2024/01/24 03:10:14;;;;;;;51.00;38.87;;;22.30;99.90;;;;;;5043146;28;20058;-62
2024/01/24 03:12:40;;;;;;;50.83;38.33;;;22.30;99.90;;;;;;5046455;28;20025;-62
2024/01/24 03:15:06;;;;;;;53.37;38.93;;;22.30;99.90;;;;;;5048567;28;20411;-63
2024/01/24 03:17:32;;;;;;;54.80;40.23;;;22.20;99.90;;;;;;5050223;28;20036;-62
2024/01/24 03:19:58;;;;;;;49.57;38.30;;;22.30;99.90;;;;;;5051465;28;20021;-63
2024/01/24 03:22:24;;;;;;;51.20;38.83;;;22.30;99.90;;;;;;5045344;28;20521;-62
2024/01/24 03:24:51;;;;;;;50.67;39.70;;;22.30;99.90;;;;;;5050430;28;20060;-62
2024/01/24 03:27:16;;;;;;;51.07;38.43;;;22.30;99.90;;;;;;5049353;28;20058;-62
2024/01/24 03:29:45;;;;;;;50.60;38.73;;;22.30;99.90;;;;;;5049849;28;20039;-62
2024/01/24 03:32:10;;;;;;;54.70;40.23;;;22.30;99.90;;;;;;5042018;28;20113;-63
2024/01/24 03:34:36;;;;;;;52.47;39.17;;;22.30;99.90;;;;;;5051496;28;20095;-63
2024/01/24 03:37:02;;;;;;;48.47;37.63;;;22.20;99.90;;;;;;5046381;28;20029;-63
2024/01/24 03:39:28;;;;;;;52.87;38.17;;;22.20;99.90;;;;;;5050093;28;20025;-63
2024/01/24 03:41:54;;;;;;;56.53;39.37;;;22.20;99.90;;;;;;5046806;28;20028;-63
2024/01/24 03:44:28;;;;;;;50.20;38.30;;;22.20;99.90;;;;;;5047931;28;20025;-63
2024/01/24 03:46:54;;;;;;;;;;;22.20;99.90;;;;;;5041739;28;20044;-62
2024/01/24 03:49:21;;;;;;;50.33;38.40;;;22.20;99.90;;;;;;5038351;28;20000;-63
2024/01/24 03:51:48;;;;;;;51.83;37.83;;;22.30;99.90;;;;;;5038337;28;20329;-63
2024/01/24 03:54:13;;;;;;;51.30;38.67;;;22.20;99.90;;;;;;5046295;28;20082;-63
2024/01/24 03:56:39;;;;;;;51.63;38.03;;;22.10;99.90;;;;;;5044907;28;20446;-63
2024/01/24 03:59:05;;;;;;;47.33;38.13;;;22.10;99.90;;;;;;5051889;28;20378;-63
2024/01/24 04:01:30;;;;;;;48.40;37.47;;;22.20;99.90;;;;;;5045384;28;20107;-63
2024/01/24 04:03:56;;;;;;;46.93;37.27;;;22.20;99.90;;;;;;5039447;28;20436;-63
2024/01/24 04:06:21;;;;;;;50.47;38.17;;;22.20;99.90;;;;;;5048737;28;20036;-63
2024/01/24 04:08:47;;;;;;;47.70;37.40;;;22.30;99.90;;;;;;5049560;28;20120;-63
2024/01/24 04:11:12;;;;;;;49.77;37.33;;;22.20;99.90;;;;;;5044612;28;20037;-63
2024/01/24 04:13:42;;;;;;;50.43;37.70;;;22.30;99.90;;;;;;5035842;28;20425;-63
2024/01/24 04:16:08;;;;;;;46.53;37.67;;;22.20;99.90;;;;;;5050377;28;20028;-63
2024/01/24 04:18:34;;;;;;;53.13;39.03;;;22.30;99.90;;;;;;5040917;28;20030;-64
2024/01/24 04:21:01;;;;;;;49.07;37.87;;;22.20;99.90;;;;;;5050761;28;20390;-63
2024/01/24 04:23:29;;;;;;;51.53;38.50;;;22.20;99.90;;;;;;5050148;28;20036;-63
2024/01/24 04:25:54;;;;;;;47.70;37.47;;;22.20;99.90;;;;;;5043874;28;20479;-63
2024/01/24 04:28:20;;;;;;;49.10;37.50;;;22.20;99.90;;;;;;5042304;28;20036;-63
2024/01/24 04:30:45;;;;;;;48.50;35.73;;;22.20;99.90;;;;;;5042737;28;20726;-63
2024/01/24 04:33:14;;;;;;;49.20;37.60;;;22.20;99.90;;;;;;5050669;28;20029;-63
2024/01/24 04:35:40;;;;;;;45.50;33.03;;;22.20;99.90;;;;;;5047561;28;20024;-63
2024/01/24 04:38:05;;;;;;;44.63;34.87;;;22.20;99.90;;;;;;5050296;28;20021;-63
2024/01/24 04:40:31;;;;;;;48.13;35.27;;;22.20;99.90;;;;;;5050487;28;20116;-63
2024/01/24 04:42:57;;;;;;;52.20;37.10;;;22.20;99.90;;;;;;5047362;28;20021;-62
2024/01/24 04:45:22;;;;;;;52.63;36.17;;;22.20;99.90;;;;;;5038826;28;20029;-64
2024/01/24 04:47:48;;;;;;;46.83;36.20;;;22.10;99.90;;;;;;5049185;28;20024;-63
2024/01/24 04:50:13;;;;;;;47.57;35.40;;;22.10;99.90;;;;;;5041621;28;20044;-62
2024/01/24 04:52:39;;;;;;;47.30;35.77;;;22.10;99.90;;;;;;5049395;28;20049;-63
2024/01/24 04:55:11;;;;;;;44.93;35.03;;;22.10;99.90;;;;;;5045774;28;20041;-63
2024/01/24 04:57:37;;;;;;;47.13;35.03;;;22.20;99.90;;;;;;5050378;28;20111;-63
2024/01/24 05:00:07;;;;;;;48.00;35.07;;;22.20;99.90;;;;;;5042930;28;20183;-64
2024/01/24 05:02:33;;;;;;;46.03;34.13;;;22.20;99.90;;;;;;5050345;28;20025;-64
2024/01/24 05:04:58;;;;;;;44.83;32.93;;;22.10;99.90;;;;;;5049418;28;20095;-64
2024/01/24 05:07:24;;;;;;;44.93;34.60;;;22.10;99.90;;;;;;5049423;28;20109;-64
2024/01/24 05:09:50;;;;;;;42.37;33.33;;;22.10;99.90;;;;;;5040515;28;20046;-64
2024/01/24 05:12:15;;;;;;;42.13;33.43;;;22.20;99.90;;;;;;5048836;28;20025;-62
2024/01/24 05:14:42;;;;;;;43.40;33.17;;;22.20;99.90;;;;;;5044132;28;20021;-63
2024/01/24 05:17:08;;;;;;;43.63;32.17;;;22.10;99.90;;;;;;5051034;28;20015;-63
2024/01/24 05:19:34;;;;;;;42.07;33.93;;;22.10;99.90;;;;;;5043936;28;20112;-63
2024/01/24 05:22:29;;;;;;;42.73;33.60;;;22.10;99.90;;;;;;5048566;28;20083;-63
2024/01/24 05:24:54;;;;;;;45.10;34.40;;;22.20;99.90;;;;;;5045434;28;20086;-64
2024/01/24 05:27:20;;;;;;;47.67;32.93;;;22.20;99.90;;;;;;5046965;28;20025;-64
2024/01/24 05:29:46;;;;;;;48.93;33.90;;;22.10;99.90;;;;;;5077304;28;20060;-63
2024/01/24 05:32:12;;;;;;;48.00;33.50;;;22.20;99.90;;;;;;5047602;28;20033;-63
2024/01/24 05:34:37;;;;;;;45.77;33.67;;;22.20;99.90;;;;;;5049896;28;20086;-63
2024/01/24 05:37:03;;;;;;;49.63;32.77;;;22.20;99.90;;;;;;5047502;28;20029;-64
2024/01/24 05:39:29;;;;;;;45.97;34.13;;;22.20;99.90;;;;;;5044170;28;20033;-63
2024/01/24 05:41:55;;;;;;;43.60;33.63;;;22.10;99.90;;;;;;5050169;28;20025;-63
2024/01/24 05:44:21;;;;;;;43.37;32.20;;;22.10;99.90;;;;;;5040710;28;20470;-64
2024/01/24 05:46:46;;;;;;;42.77;32.47;;;22.20;99.90;;;;;;5043064;28;20033;-64
2024/01/24 05:49:12;;;;;;;47.67;33.57;;;22.10;99.90;;;;;;5045780;28;20039;-64
2024/01/24 05:51:37;;;;;;;42.30;33.83;;;22.10;99.90;;;;;;5047837;28;20513;-63
2024/01/24 05:54:04;;;;;;;46.70;33.97;;;22.10;99.90;;;;;;5047029;28;20109;-63
2024/01/24 05:56:30;;;;;;;44.27;33.63;;;22.10;99.90;;;;;;5045422;28;20463;-63
2024/01/24 05:58:56;;;;;;;45.13;32.43;;;22.10;99.90;;;;;;5050960;28;20030;-63
2024/01/24 06:01:21;;;;;;;49.23;34.70;;;22.20;99.90;;;;;;5048326;28;20021;-63
2024/01/24 06:03:47;;;;;;;47.10;33.33;;;22.10;99.90;;;;;;5054597;28;20467;-63
2024/01/24 06:06:13;;;;;;;42.90;33.37;;;22.10;99.90;;;;;;5040830;28;20163;-63
2024/01/24 06:08:39;;;;;;;47.03;33.73;;;22.10;99.90;;;;;;5051512;28;20061;-63
2024/01/24 06:11:05;;;;;;;43.57;32.67;;;22.00;99.90;;;;;;5045486;28;20033;-62
2024/01/24 06:13:31;;;;;;;46.67;34.23;;;22.10;99.90;;;;;;5045485;28;20112;-63
2024/01/24 06:15:57;;;;;;;45.50;32.40;;;22.10;99.90;;;;;;5048303;28;20043;-63
2024/01/24 06:18:22;;;;;;;46.67;33.17;;;22.10;99.90;;;;;;5049947;28;20040;-63
2024/01/24 06:20:48;;;;;;;42.20;31.33;;;22.10;99.90;;;;;;5051190;28;20491;-63
2024/01/24 06:23:14;;;;;;;45.27;31.47;;;22.10;99.90;;;;;;5048115;28;20021;-64
2024/01/24 06:25:39;;;;;;;43.57;31.37;;;22.10;99.90;;;;;;5051184;28;20093;-64
2024/01/24 06:28:05;;;;;;;39.67;30.80;;;22.00;99.90;;;;;;5050310;28;20047;-62
2024/01/24 06:30:31;;;;;;;46.47;31.67;;;22.10;99.90;;;;;;5048079;28;20034;-64
2024/01/24 06:32:57;;;;;;;40.73;31.93;;;22.10;99.90;;;;;;5053176;28;20075;-64
2024/01/24 06:35:23;;;;;;;45.50;32.23;;;22.10;99.90;;;;;;5052201;28;20359;-63
2024/01/24 06:37:50;;;;;;;43.30;32.00;;;22.10;99.90;;;;;;5051151;28;20024;-63
2024/01/24 06:40:16;;;;;;;51.03;34.43;;;22.10;99.90;;;;;;5049233;28;20158;-63
2024/01/24 06:42:42;;;;;;;41.77;32.67;;;22.10;99.90;;;;;;5051561;28;20021;-63
2024/01/24 06:45:08;;;;;;;46.77;33.03;;;22.10;99.90;;;;;;5052724;28;20529;-63
2024/01/24 06:47:34;;;;;;;47.57;34.13;;;22.10;99.90;;;;;;5046326;28;20074;-62
2024/01/24 06:50:00;;;;;;;53.37;37.33;;;22.00;99.90;;;;;;5052519;28;20029;-62
2024/01/24 06:52:26;;;;;;;50.33;37.73;;;22.10;99.90;;;;;;5048344;28;20136;-63
2024/01/24 06:54:52;;;;;;;52.27;37.30;;;22.10;99.90;;;;;;5042935;28;20108;-62
2024/01/24 06:57:17;;;;;;;52.93;37.50;;;22.10;99.90;;;;;;5044571;28;20448;-63
2024/01/24 06:59:43;;;;;;;50.83;38.23;;;22.00;99.90;;;;;;5053536;28;20470;-63
2024/01/24 07:02:09;;;;;;;52.63;38.97;;;22.10;99.90;;;;;;5050174;28;20036;-62
2024/01/24 07:04:35;;;;;;;50.77;37.63;;;22.10;99.90;;;;;;5046003;28;20409;-59
2024/01/24 07:07:00;;;;;;;48.10;37.20;;;22.10;99.90;;;;;;5046659;28;20037;-53
2024/01/24 07:09:26;;;;;;;53.40;37.70;;;22.10;99.90;;;;;;5040100;28;20058;-49
2024/01/24 07:11:52;;;;;;;52.13;38.13;;;22.10;99.90;;;;;;5046350;28;20067;-53
2024/01/24 07:14:17;;;;;;;55.70;36.80;;;22.10;99.90;;;;;;5047285;28;20382;-54
2024/01/24 07:20:05;;;;;;;47.43;35.40;;;22.10;99.90;;;;;;5036866;28;20051;-55
2024/01/24 07:22:31;;;;;;;42.33;32.40;;;22.10;99.90;;;;;;5047070;28;20025;-57
2024/01/24 07:24:59;;;;;;;45.80;33.50;;;22.10;99.90;;;;;;5048638;28;20028;-62
2024/01/24 07:27:25;;;;;;;48.73;33.57;;;22.10;99.90;;;;;;5045515;28;20039;-61
2024/01/24 07:29:51;;;;;;;44.80;33.37;;;22.10;99.90;;;;;;5044858;28;20112;-61
2024/01/24 07:35:40;;;;;;;45.67;33.20;;;22.20;99.90;;;;;;5042947;28;20032;-63
2024/01/24 07:38:06;;;;;;;45.40;32.37;;;22.20;99.90;;;;;;5052563;28;20051;-53
2024/01/24 07:40:31;;;;;;;51.20;35.60;;;22.10;99.90;;;;;;5051113;28;20025;-56
2024/01/24 07:42:57;;;;;;;44.00;32.60;;;22.20;99.90;;;;;;5052947;28;20033;-53
2024/01/24 07:45:22;;;;;;;48.77;35.33;;;22.20;99.90;;;;;;5049402;28;20029;-61
2024/01/24 07:47:50;;;;;;;45.47;34.03;;;22.20;99.90;;;;;;5046463;28;20035;-60
2024/01/24 07:50:15;;;;;;;45.33;33.60;;;22.20;99.90;;;;;;5039089;28;20033;-58
2024/01/24 07:52:41;;;;;;;51.93;33.97;;;22.20;99.90;;;;;;5050848;28;20037;-58
2024/01/24 07:55:09;;;;;;;42.00;32.53;;;22.20;99.90;;;;;;5052138;28;20039;-54
2024/01/24 07:57:35;;;;;;;47.83;34.23;;;22.20;99.90;;;;;;5053426;28;20029;-55
2024/01/24 08:00:01;;;;;;;47.23;31.97;;;22.20;99.90;;;;;;5052089;28;20040;-57
2024/01/24 08:02:27;;;;;;;46.00;33.50;;;22.10;99.90;;;;;;5051294;28;20029;-59
2024/01/24 08:04:52;;;;;;;47.83;33.63;;;22.20;99.90;;;;;;5050045;28;20035;-58
2024/01/24 08:07:18;;;;;;;45.90;34.27;;;22.10;99.90;;;;;;5038303;28;20032;-58
2024/01/24 08:09:44;;;;;;;45.53;34.20;;;22.10;99.90;;;;;;5043376;28;20033;-57
2024/01/24 08:12:10;;;;;;;46.70;33.50;;;22.20;99.90;;;;;;5052030;28;20021;-60
2024/01/24 08:14:35;;;;;;;46.83;33.07;;;22.20;99.90;;;;;;5052080;28;20036;-60
2024/01/24 08:17:05;;;;;;;49.83;34.40;;;22.20;99.90;;;;;;5044116;28;20021;-60
2024/01/24 08:19:32;;;;;;;44.60;33.23;;;22.30;99.90;;;;;;5051031;28;20025;-59
2024/01/24 08:21:58;;;;;;;47.03;33.67;;;22.20;99.90;;;;;;5052206;28;20602;-59
2024/01/24 08:24:24;;;;;;;48.93;36.30;;;22.30;99.90;;;;;;5051818;28;20028;-60
2024/01/24 08:26:51;;;;;;;46.53;33.87;;;22.30;99.90;;;;;;5042480;28;20546;-60
2024/01/24 08:29:17;;;;;;;50.53;36.60;;;22.30;99.90;;;;;;5047883;28;20041;-60
2024/01/24 08:31:43;;;;;;;47.73;33.20;;;22.40;99.90;;;;;;5052046;28;20029;-60
2024/01/24 08:34:09;;;;;;;49.23;35.03;;;22.20;99.90;;;;;;5051967;28;20029;-60
2024/01/24 08:36:35;;;;;;;51.97;34.00;;;22.30;99.90;;;;;;5050649;28;20108;-66
2024/01/24 08:39:02;;;;;;;45.40;34.07;;;22.40;99.90;;;;;;5051688;28;20021;-62
2024/01/24 08:41:28;;;;;;;50.57;34.23;;;22.30;99.90;;;;;;5051419;28;20100;-60
2024/01/24 08:43:57;;;;;;;48.27;35.20;;;22.20;99.90;;;;;;5051609;28;20049;-73
2024/01/24 08:46:23;;;;;;;51.27;37.07;;;22.20;99.90;;;;;;5050108;28;20143;-62
2024/01/24 08:48:48;;;;;;;44.67;35.07;;;22.30;99.90;;;;;;5051530;28;20048;-63
2024/01/24 08:51:14;;;;;;;50.17;36.70;;;22.30;99.90;;;;;;5051699;28;20036;-63
2024/01/24 08:53:39;;;;;;;51.07;36.43;;;22.30;99.90;;;;;;5048133;28;20134;-65
2024/01/24 08:59:27;;;;;;;48.13;35.87;;;22.40;99.90;;;;;;5036245;28;20076;-65
2024/01/24 09:01:55;;;;;;;50.33;34.93;;;22.30;99.90;;;;;;5046374;28;20096;-76
2024/01/24 09:04:21;;;;;;;40.97;33.87;;;22.30;99.90;;;;;;5040872;28;20025;-75
2024/01/24 09:06:46;;;;;;;47.90;35.03;;;22.30;99.90;;;;;;5049251;28;20482;-62
2024/01/24 09:09:15;;;;;;;45.83;35.70;;;22.30;99.90;;;;;;5051171;28;20029;-62
2024/01/24 09:11:41;;;;;;;43.57;34.53;;;22.30;99.90;;;;;;5051400;28;20078;-53
2024/01/24 09:14:07;;;;;;;49.20;36.10;;;22.20;99.90;;;;;;5049857;28;20156;-66
2024/01/24 09:16:32;;;;;;;49.63;36.40;;;22.30;99.90;;;;;;5049751;28;20029;-66
2024/01/24 09:18:58;;;;;;;48.90;36.00;;;22.30;99.90;;;;;;5051243;28;20032;-64
2024/01/24 09:21:24;;;;;;;48.97;36.63;;;22.40;99.90;;;;;;5049669;28;20025;-63
2024/01/24 09:23:50;;;;;;;49.23;37.03;;;22.40;99.90;;;;;;5050560;28;20474;-67
2024/01/24 09:26:16;;;;;;;48.97;36.40;;;22.30;99.90;;;;;;5051034;28;20104;-61
2024/01/24 09:28:42;;;;;;;53.77;38.87;;;22.40;99.90;;;;;;5051305;28;20037;-52
2024/01/24 09:31:08;;;;;;;50.40;38.73;;;22.50;99.90;;;;;;5052405;28;20112;-59
2024/01/24 09:33:33;;;;;;;54.43;40.40;;;22.50;99.90;;;;;;5043490;28;20025;-55
2024/01/24 09:35:59;;;;;;;53.07;39.47;;;22.60;99.90;;;;;;5049512;28;20037;-55
2024/01/24 09:38:25;;;;;;;46.73;38.50;;;22.60;99.90;;;;;;5049919;28;20017;-67
2024/01/24 09:40:52;;;;;;;51.50;39.93;;;22.60;99.90;;;;;;5041903;28;20433;-67
2024/01/24 09:43:21;;;;;;;54.53;40.00;;;22.50;99.90;;;;;;5057373;28;20036;-69
2024/01/24 09:45:49;;;;;;;53.57;39.63;;;22.60;99.90;;;;;;5055831;28;20025;-75
2024/01/24 09:48:16;;;;;;;51.60;39.23;;;22.60;99.90;;;;;;5055711;28;20128;-65
2024/01/24 09:50:44;;;;;;;50.50;39.13;;;22.60;99.90;;;;;;5054742;28;20035;-60
2024/01/24 09:53:16;;;;;;;52.00;39.47;;;22.80;99.90;;;;;;5054529;28;20110;-61
2024/01/24 09:55:42;;;;;;;53.90;40.83;;;22.80;99.90;;;;;;5054417;28;20056;-60
2024/01/24 09:58:07;;;;;;;53.70;41.87;;;22.80;99.90;;;;;;5045634;28;20037;-61
2024/01/24 10:00:33;;;;;;;51.60;40.33;;;22.80;99.90;;;;;;5043392;28;20022;-68
2024/01/24 10:02:59;;;;;;;54.63;42.27;;;22.90;99.90;;;;;;5049603;28;20049;-70
2024/01/24 10:05:25;;;;;;;53.80;41.80;;;22.80;99.90;;;;;;5045785;28;20036;-66
2024/01/24 10:07:54;;;;;;;52.33;39.43;;;22.90;99.90;;;;;;5056879;28;20025;-61
2024/01/24 10:10:20;;;;;;;47.63;38.07;;;22.90;99.90;;;;;;5055105;28;20033;-73
2024/01/24 10:12:46;;;;;;;51.80;36.57;;;22.80;99.90;;;;;;5056251;28;20033;-64
2024/01/24 10:15:12;;;;;;;52.30;37.60;;;22.80;99.90;;;;;;5054701;28;20039;-57
2024/01/24 10:17:42;;;;;;;46.27;35.23;;;22.90;99.90;;;;;;5044800;28;20505;-56
2024/01/24 10:20:14;;;;;;;49.20;35.77;;;23.00;99.90;;;;;;5053973;28;20143;-67
2024/01/24 10:22:42;;;;;;;47.60;35.70;;;23.00;99.90;;;;;;5053645;28;20124;-67
2024/01/24 10:25:10;;;;;;;49.20;36.63;;;22.90;99.90;;;;;;5056098;28;20025;-69
2024/01/24 10:27:38;;;;;;;51.30;37.63;;;23.00;99.90;;;;;;5037857;28;20029;-74
2024/01/24 10:30:26;;;;;;;49.77;36.13;;;23.10;99.90;;;;;;5048799;28;20364;-69
2024/01/24 10:32:52;;;;;;;48.07;33.13;;;23.00;99.90;;;;;;5053999;28;20074;-61
2024/01/24 10:35:18;;;;;;;42.42;33.67;;;23.10;99.90;;;;;;5054855;28;20025;-68
2024/01/24 10:37:44;;;;;;;39.95;32.25;;;23.20;99.90;;;;;;5052366;28;20060;-64
2024/01/24 10:40:14;;;;;;;50.27;36.60;;;23.20;99.90;;;;;;5053845;28;20068;-62
2024/01/24 10:42:41;;;;;;;47.37;35.53;;;23.20;99.90;;;;;;5052757;28;20071;-62
2024/01/24 10:45:08;;;;;;;48.70;34.25;;;23.20;99.90;;;;;;5052495;28;20037;-62
2024/01/24 10:47:34;;;;;;;35.83;28.63;;;23.30;99.90;;;;;;5046205;28;20410;-61
2024/01/24 10:50:09;;;;;;;43.83;30.97;;;23.20;99.90;;;;;;5051668;28;20052;-63
2024/01/24 10:52:35;;;;;;;;;;;23.30;99.90;;;;;;5051069;28;20608;-61
2024/01/24 10:55:06;;;;;;;41.45;30.85;;;23.30;99.90;;;;;;5048082;28;19999;-56
2024/01/24 10:57:34;;;;;;;38.40;29.67;;;23.40;99.90;;;;;;5044994;28;20060;-64
2024/01/24 11:00:09;;;;;;;35.87;27.43;;;23.30;99.90;;;;;;5049261;28;20458;-64
2024/01/24 11:02:34;;;;;;;36.45;29.80;;;23.40;99.90;;;;;;5050988;28;20029;-66
2024/01/24 11:05:03;;;;;;;39.38;30.70;;;23.40;99.90;;;;;;5051401;28;20025;-69
2024/01/24 11:07:35;;;;;;;40.83;28.80;;;23.40;99.90;;;;;;5051980;28;20249;-65
2024/01/24 11:10:31;;;;;;;37.47;28.23;;;23.50;99.90;;;;;;5041201;28;20033;-60
2024/01/24 11:12:57;;;;;;;39.75;29.38;;;23.50;99.90;;;;;;5044566;28;20032;-73
2024/01/24 11:15:22;;;;;;;37.78;27.83;;;23.50;99.90;;;;;;5049600;28;20094;-63
2024/01/24 11:18:22;;;;;;;36.33;27.98;;;23.50;99.90;;;;;;5043369;28;20025;-60
2024/01/24 11:21:00;;;;;;;35.28;25.80;;;23.60;99.90;;;;;;5053724;28;20028;-60
2024/01/24 11:23:34;;;;;;;34.80;26.42;;;;;;;;;;5048899;28;20064;-60
2024/01/24 11:26:00;;;;;;;39.03;27.33;;;;;;;;;;5040389;28;20430;-61
2024/01/24 11:31:40;;;;;;;36.75;27.52;;;;;;;;;;5051001;28;20254;-63
2024/01/24 11:34:07;;;;;;;37.47;27.13;;;;;;;;;;5042380;28;20025;-73
2024/01/24 11:36:40;;;;;;;39.58;28.23;;;;;;;;;;5046734;28;20044;-62
2024/01/24 11:39:25;;;;;;;38.80;27.20;;;;;;;;;;5048001;28;20028;-65
2024/01/24 11:41:54;;;;;;;38.67;28.88;;;;;;;;;;5042859;28;20121;-61
2024/01/24 11:44:20;;;;;;;44.50;29.45;;;;;;;;;;5049187;28;20033;-59
2024/01/24 11:46:47;;;;;;;34.92;26.98;;;;;;;;;;5047410;28;20542;-66
2024/01/24 11:49:13;;;;;;;36.17;27.98;;;;;;;;;;5043715;28;20040;-60
2024/01/24 11:51:39;;;;;;;37.67;28.17;;;;;;;;;;5047533;28;20029;-62
2024/01/24 11:54:05;;;;;;;40.58;26.10;;;;;;;;;;5048882;28;20378;-62
2024/01/24 11:56:35;;;;;;;36.60;26.40;;;;;;;;;;5044516;28;20117;-62
2024/01/24 11:59:01;;;;;;;34.38;25.38;;;;;;;;;;5048810;28;20028;-63
2024/01/24 12:01:27;;;;;;;31.92;24.08;;;;;;;;;;5044396;28;20029;-63
2024/01/24 12:04:12;;;;;;;36.13;25.10;;;;;;;;;;5048502;28;20025;-63
2024/01/24 12:06:38;;;;;;;36.80;24.90;;;;;;;;;;5045504;28;20083;-62
2024/01/24 12:09:08;;;;;;;36.35;25.45;;;;;;;;;;5047215;28;20090;-62
2024/01/24 12:11:34;;;;;;;37.75;25.90;;;;;;;;;;5045845;28;20425;-54
2024/01/24 12:14:00;;;;;;;33.35;24.63;;;;;;;;;;5049537;28;20032;-56
2024/01/24 12:16:28;;;;;;;32.45;24.92;;;;;;;;;;5043762;28;20491;-54
2024/01/24 12:18:54;;;;;;;35.88;25.20;;;;;;;;;;5043315;28;20455;-58
2024/01/24 12:21:21;;;;;;;35.97;25.02;;;;;;;;;;5048424;28;20470;-54
2024/01/24 12:23:47;;;;;;;35.67;25.30;;;;;;;;;;5041238;28;20025;-55
2024/01/24 12:26:14;;;;;;;35.67;26.05;;;;;;;;;;5046448;28;20183;-55
2024/01/24 12:28:40;;;;;;;31.65;24.52;;;;;;;;;;5041255;28;20116;-56
2024/01/24 12:31:06;;;;;;;30.73;22.15;;;;;;;;;;5037736;28;20120;-55
2024/01/24 12:33:35;;;;;;;30.73;23.90;;;;;;;;;;5048697;28;20380;-57
2024/01/24 12:36:05;;;;;;;30.67;23.38;;;;;;;;;;5044229;28;20124;-54
2024/01/24 12:38:35;;;;;;;37.92;24.70;;;;;;;;;;5044669;28;20029;-53
2024/01/24 12:41:01;;;;;;;29.00;22.80;;;;;;;;;;5047945;28;20327;-53
2024/01/24 12:43:27;;;;;;;34.22;23.92;;;;;;;;;;5051648;28;20063;-56
2024/01/24 12:45:53;;;;;;;35.70;24.30;;;;;;;;;;5049261;28;20098;-58
2024/01/24 12:48:19;;;;;;;37.95;24.45;;;;;;;;;;5040094;28;20534;-57
2024/01/24 12:50:45;;;;;;;30.70;24.92;;;;;;;;;;5051531;28;20142;-55